createdAt,value
2022-12-16T00:01:14.085Z,71.18
2022-12-16T00:03:44.228Z,71.30
2022-12-16T00:06:12.183Z,71.12
2022-12-16T00:08:40.805Z,70.77
2022-12-16T00:11:09.867Z,71.02
2022-12-16T00:13:40.299Z,71.07
2022-12-16T00:16:12.354Z,71.11
2022-12-16T00:18:40.425Z,71.28
2022-12-16T00:21:09.307Z,70.63
2022-12-16T00:23:39.344Z,70.58
2022-12-16T00:26:07.474Z,70.45
2022-12-16T00:28:36.085Z,70.76
2022-12-16T00:31:04.154Z,70.98
2022-12-16T00:33:34.461Z,70.69
2022-12-16T00:36:02.669Z,70.98
2022-12-16T00:38:30.492Z,71.30
2022-12-16T00:40:58.313Z,71.13
2022-12-16T00:43:26.162Z,71.14
2022-12-16T00:45:54.116Z,71.01
2022-12-16T00:48:23.432Z,70.94
2022-12-16T00:50:55.253Z,70.85
2022-12-16T00:53:25.246Z,71.41
2022-12-16T00:55:53.705Z,71.21
2022-12-16T00:58:21.559Z,71.49
2022-12-16T01:00:49.424Z,71.33
2022-12-16T01:03:21.623Z,71.01
2022-12-16T01:05:50.140Z,71.36
2022-12-16T01:08:19.908Z,70.83
2022-12-16T01:10:52.007Z,71.00
2022-12-16T01:13:20.408Z,71.03
2022-12-16T01:15:48.233Z,70.94
2022-12-16T01:18:16.706Z,71.06
2022-12-16T01:20:44.513Z,71.15
2022-12-16T01:23:12.405Z,71.17
2022-12-16T01:25:41.626Z,71.38
2022-12-16T01:28:09.818Z,71.30
2022-12-16T01:30:37.674Z,71.21
2022-12-16T01:33:05.477Z,71.17
2022-12-16T01:38:20.903Z,70.93
2022-12-16T01:40:50.014Z,71.13
2022-12-16T01:43:19.959Z,71.08
2022-12-16T01:45:47.765Z,71.13
2022-12-16T01:48:23.465Z,71.08
2022-12-16T01:50:53.515Z,71.25
2022-12-16T01:53:21.511Z,71.32
2022-12-16T01:55:52.619Z,70.93
2022-12-16T01:58:25.209Z,71.25
2022-12-16T02:00:53.117Z,71.28
2022-12-16T02:03:23.377Z,71.36
2022-12-16T02:05:51.921Z,71.58
2022-12-16T02:08:23.558Z,71.74
2022-12-16T02:11:08.257Z,71.59
2022-12-16T02:13:57.408Z,72.05
2022-12-16T02:16:34.137Z,71.79
2022-12-16T02:19:19.545Z,71.74
2022-12-16T02:21:49.846Z,71.75
2022-12-16T02:24:29.299Z,71.93
2022-12-16T02:27:18.086Z,71.88
2022-12-16T02:30:25.876Z,72.02
2022-12-16T02:33:07.216Z,72.25
2022-12-16T02:35:41.023Z,72.56
2022-12-16T02:38:19.283Z,72.65
2022-12-16T02:40:53.919Z,72.66
2022-12-16T02:43:40.438Z,72.70
2022-12-16T02:46:10.171Z,73.23
2022-12-16T02:48:38.050Z,73.58
2022-12-16T02:51:05.903Z,73.63
2022-12-16T02:53:37.726Z,73.17
2022-12-16T02:56:12.209Z,73.35
2022-12-16T02:58:50.570Z,73.50
2022-12-16T03:01:26.220Z,73.47
2022-12-16T03:04:02.446Z,73.51
2022-12-16T03:06:33.067Z,73.53
2022-12-16T03:09:04.691Z,73.67
2022-12-16T03:11:33.768Z,73.46
2022-12-16T03:14:04.394Z,73.38
2022-12-16T03:16:35.421Z,73.83
2022-12-16T03:19:06.791Z,73.84
2022-12-16T03:21:40.049Z,74.03
2022-12-16T03:24:13.773Z,73.89
2022-12-16T03:26:48.801Z,74.09
2022-12-16T03:29:23.023Z,73.84
2022-12-16T03:31:58.974Z,73.89
2022-12-16T03:34:33.759Z,73.84
2022-12-16T03:37:05.193Z,73.80
2022-12-16T03:39:35.840Z,73.70
2022-12-16T03:42:04.963Z,73.88
2022-12-16T03:44:33.379Z,74.02
2022-12-16T03:47:02.737Z,74.03
2022-12-16T03:49:30.535Z,74.17
2022-12-16T03:52:00.732Z,74.49
2022-12-16T03:54:28.923Z,74.30
2022-12-16T03:56:56.906Z,74.25
2022-12-16T03:59:24.893Z,74.06
2022-12-16T04:01:53.422Z,74.36
2022-12-16T04:04:23.409Z,74.57
2022-12-16T04:07:11.474Z,74.38
2022-12-16T04:09:39.542Z,74.39
2022-12-16T04:12:25.060Z,74.59
2022-12-16T04:15:10.875Z,74.70
2022-12-16T04:17:56.577Z,74.90
2022-12-16T04:20:48.800Z,75.21
2022-12-16T04:23:34.677Z,75.53
2022-12-16T04:26:02.881Z,75.59
2022-12-16T04:28:31.144Z,75.40
2022-12-16T04:30:59.458Z,75.67
2022-12-16T04:33:45.000Z,75.31
2022-12-16T04:36:31.794Z,74.87
2022-12-16T04:39:16.981Z,74.94
2022-12-16T04:42:02.364Z,74.96
2022-12-16T04:44:47.847Z,75.06
2022-12-16T04:47:33.652Z,74.91
2022-12-16T04:50:19.095Z,74.94
2022-12-16T04:53:09.828Z,74.82
2022-12-16T04:56:00.562Z,74.44
2022-12-16T04:58:49.310Z,74.60
2022-12-16T05:01:34.860Z,74.26
2022-12-16T05:04:20.546Z,74.02
2022-12-16T05:07:05.837Z,73.93
2022-12-16T05:09:53.001Z,74.40
2022-12-16T05:12:38.509Z,74.15
2022-12-16T05:15:24.907Z,74.15
2022-12-16T05:18:10.057Z,73.46
2022-12-16T05:20:55.532Z,73.83
2022-12-16T05:23:40.799Z,73.74
2022-12-16T05:26:28.084Z,73.70
2022-12-16T05:29:13.634Z,73.73
2022-12-16T05:31:58.851Z,73.42
2022-12-16T05:34:44.071Z,73.37
2022-12-16T05:37:29.776Z,73.33
2022-12-16T05:40:17.344Z,73.43
2022-12-16T05:43:08.940Z,73.67
2022-12-16T05:46:10.271Z,73.55
2022-12-16T05:48:58.380Z,73.48
2022-12-16T05:51:52.020Z,73.58
2022-12-16T05:54:38.649Z,73.66
2022-12-16T05:57:24.415Z,73.44
2022-12-16T06:00:19.873Z,73.27
2022-12-16T06:03:11.425Z,73.20
2022-12-16T06:06:07.494Z,73.31
2022-12-16T06:09:09.000Z,72.79
2022-12-16T06:11:54.767Z,73.12
2022-12-16T06:14:40.708Z,72.95
2022-12-16T06:17:28.179Z,72.71
2022-12-16T06:20:14.367Z,72.80
2022-12-16T06:23:10.388Z,72.93
2022-12-16T06:25:56.218Z,73.13
2022-12-16T06:28:45.901Z,72.78
2022-12-16T06:31:33.498Z,72.96
2022-12-16T06:34:21.285Z,72.74
2022-12-16T06:40:07.481Z,72.81
2022-12-16T06:42:52.868Z,72.61
2022-12-16T06:46:55.711Z,72.94
2022-12-16T06:49:45.169Z,73.20
2022-12-16T06:56:47.282Z,73.63
2022-12-16T06:59:32.394Z,74.04
2022-12-16T07:02:17.684Z,73.88
2022-12-16T07:05:02.950Z,73.93
2022-12-16T07:07:48.141Z,73.94
2022-12-16T07:10:33.361Z,74.04
2022-12-16T07:13:19.739Z,73.95
2022-12-16T07:16:05.843Z,74.08
2022-12-16T07:18:51.074Z,73.78
2022-12-16T07:21:36.434Z,73.93
2022-12-16T07:24:21.903Z,74.09
2022-12-16T07:27:07.307Z,74.04
2022-12-16T07:29:54.154Z,74.10
2022-12-16T07:32:39.759Z,74.22
2022-12-16T07:35:25.633Z,73.65
2022-12-16T07:38:11.063Z,73.72
2022-12-16T07:40:56.865Z,73.84
2022-12-16T07:43:42.250Z,73.78
2022-12-16T07:46:29.063Z,74.17
2022-12-16T14:20:09.180Z,76.28
2022-12-16T14:23:10.678Z,76.52
2022-12-16T14:26:00.736Z,76.82
2022-12-16T14:28:48.310Z,76.52
2022-12-16T14:31:37.532Z,76.30
2022-12-16T14:34:23.633Z,76.66
2022-12-16T14:37:09.198Z,76.81
2022-12-16T14:40:01.582Z,76.41
2022-12-16T14:42:48.703Z,76.38
2022-12-16T14:45:51.664Z,76.80
2022-12-16T14:49:06.345Z,76.81
2022-12-16T14:55:16.872Z,76.11
2022-12-16T14:58:13.168Z,76.93
2022-12-16T15:01:00.239Z,76.70
2022-12-16T15:03:54.952Z,76.57
2022-12-16T15:06:46.052Z,76.65
2022-12-16T15:09:42.091Z,76.24
2022-12-16T15:14:09.827Z,76.87
2022-12-16T15:16:01.221Z,76.77
2022-12-16T15:19:13.685Z,76.79
2022-12-16T15:22:09.415Z,76.34
2022-12-16T15:25:03.319Z,76.64
2022-12-16T16:11:57.922Z,76.87
2022-12-16T16:15:24.255Z,77.11
2022-12-16T16:21:42.553Z,76.99
2022-12-16T16:24:28.052Z,76.91
2022-12-16T17:34:08.289Z,76.13
2022-12-16T17:36:59.407Z,76.71
2022-12-16T17:39:45.054Z,76.15
2022-12-16T17:42:30.620Z,76.14
2022-12-16T17:45:15.919Z,76.12
2022-12-16T17:48:02.833Z,76.43
2022-12-16T17:50:51.476Z,76.45
2022-12-16T17:53:37.126Z,76.22
2022-12-16T17:56:26.240Z,76.45
2022-12-16T17:59:13.394Z,76.19
2022-12-16T18:01:58.704Z,76.17
2022-12-16T18:07:34.365Z,76.60
2022-12-16T18:10:20.969Z,76.33
2022-12-16T18:13:06.508Z,76.24
2022-12-16T18:15:52.073Z,76.22
2022-12-16T18:22:05.515Z,76.41
2022-12-16T18:25:09.594Z,76.59
2022-12-16T18:28:00.736Z,76.78
2022-12-16T18:30:46.308Z,76.92
2022-12-16T18:33:33.515Z,76.93
2022-12-16T18:36:24.649Z,76.94
2022-12-16T18:39:09.909Z,76.86
2022-12-16T18:42:02.245Z,76.93
2022-12-16T18:44:59.185Z,77.30
2022-12-16T18:47:48.946Z,77.75
2022-12-16T18:50:45.982Z,77.79
2022-12-16T18:53:31.393Z,77.50
2022-12-16T18:56:20.849Z,77.68
2022-12-16T18:59:07.785Z,77.56
2022-12-16T19:01:53.461Z,78.01
2022-12-16T19:08:34.423Z,78.29
2022-12-16T19:11:21.922Z,77.78
2022-12-16T20:24:13.884Z,78.49
2022-12-16T20:27:19.692Z,78.72
2022-12-16T20:30:25.529Z,78.81
2022-12-16T20:33:16.879Z,78.58
2022-12-16T20:47:02.161Z,78.64
2022-12-16T21:07:48.177Z,79.23
2022-12-16T21:14:30.504Z,79.21
2022-12-16T21:17:29.101Z,79.40
2022-12-16T21:20:22.414Z,79.01
2022-12-16T21:23:17.330Z,79.23
2022-12-16T21:43:23.830Z,78.91
2022-12-16T21:49:39.391Z,78.87
2022-12-16T21:52:40.567Z,78.95
2022-12-16T21:55:31.453Z,79.12
2022-12-16T21:58:18.681Z,78.72
2022-12-16T22:01:04.187Z,78.91
2022-12-16T22:03:54.460Z,78.76
2022-12-16T22:06:48.858Z,78.99
2022-12-16T22:09:58.253Z,78.78
2022-12-16T22:12:45.021Z,78.85
2022-12-16T22:18:12.747Z,78.32
2022-12-16T22:20:58.203Z,78.68
2022-12-16T22:23:47.526Z,78.43
2022-12-16T22:26:32.914Z,78.84
2022-12-16T22:29:18.881Z,78.74
2022-12-16T22:32:04.198Z,78.62
2022-12-16T22:34:50.640Z,78.87
2022-12-16T22:37:36.156Z,78.46
2022-12-16T22:40:21.315Z,78.55
2022-12-16T22:43:07.038Z,79.12
2022-12-16T22:45:52.561Z,78.82
2022-12-16T22:48:43.067Z,78.97
2022-12-16T22:51:33.156Z,79.04
2022-12-16T22:54:18.887Z,79.23
2022-12-16T22:57:04.866Z,79.33
2022-12-16T22:59:50.127Z,79.20
2022-12-16T23:02:35.611Z,78.93
2022-12-16T23:05:27.139Z,79.16
2022-12-16T23:08:17.212Z,79.13
2022-12-16T23:11:02.407Z,79.24
2022-12-16T23:13:47.596Z,78.81
2022-12-16T23:16:32.992Z,78.87
2022-12-16T23:19:18.841Z,78.69
2022-12-16T23:22:03.909Z,78.83
2022-12-16T23:24:59.313Z,79.03
2022-12-16T23:27:44.793Z,78.91
2022-12-16T23:30:30.548Z,78.69
2022-12-16T23:33:16.698Z,78.91
2022-12-16T23:36:02.178Z,78.58
2022-12-16T23:38:47.420Z,78.94
2022-12-16T23:41:33.084Z,78.71
2022-12-16T23:44:18.492Z,78.60
2022-12-16T23:47:03.862Z,78.83
2022-12-16T23:49:49.024Z,78.93
2022-12-16T23:52:34.644Z,78.86
2022-12-16T23:55:19.857Z,78.91
2022-12-16T23:58:08.728Z,78.97
